Time;durP1;ratioP1;P1;durP2;ratioP2;P2;SDS_P1;SDS_P2;PMS_P1;PMS_P2;Temp;Humidity;BMP_temperature;BMP_pressure;BME280_temperature;BME280_humidity;BME280_pressure;Samples;Min_cycle;Max_cycle;Signal;HPM_P1;HPM_P2
2022/05/14 00:03:47;;;;;;;7.57;4.07;;;;;;;16.73;45.54;98369.81;8351286;28;20228;-73
2022/05/14 00:07:52;;;;;;;7.73;4.13;;;;;;;16.68;45.74;98368.44;8347319;28;20600;-73
2022/05/14 00:16:16;;;;;;;6.50;3.90;;;;;;;16.47;46.21;98371.47;8347014;28;20240;-73
2022/05/14 00:20:19;;;;;;;8.03;3.97;;;;;;;16.39;46.22;98377.19;8347089;28;20247;-73
2022/05/14 00:24:24;;;;;;;8.27;4.07;;;;;;;16.34;46.70;98373.16;8354751;28;20232;-73
2022/05/14 00:28:27;;;;;;;8.97;4.23;;;;;;;16.41;46.13;98371.84;8346708;28;20435;-73
2022/05/14 00:32:30;;;;;;;8.33;3.80;;;;;;;16.31;46.65;98373.34;8346897;28;20232;-73
2022/05/14 00:36:33;;;;;;;7.17;4.00;;;;;;;16.35;46.63;98365.22;8346899;28;20270;-73
2022/05/14 00:40:39;;;;;;;10.17;4.43;;;;;;;16.24;46.74;98365.06;8348134;28;20228;-73
2022/05/14 00:44:42;;;;;;;7.40;3.77;;;;;;;16.23;46.76;98364.19;8352878;28;20254;-73
2022/05/14 00:48:45;;;;;;;9.07;3.97;;;;;;;16.34;46.68;98366.16;8352756;28;20231;-74
2022/05/14 00:52:49;;;;;;;6.03;3.50;;;;;;;16.31;46.51;98370.72;8352565;28;20235;-73
2022/05/14 00:56:58;;;;;;;9.53;4.27;;;;;;;16.30;46.09;98369.06;8352579;28;20236;-73
2022/05/14 01:01:01;;;;;;;7.43;3.90;;;;;;;16.13;46.67;98370.09;8374197;28;20242;-73
2022/05/14 01:05:05;;;;;;;6.40;3.40;;;;;;;16.14;46.45;98362.13;8385237;28;20235;-73
2022/05/14 01:09:09;;;;;;;5.73;3.50;;;;;;;15.92;47.34;98365.22;8385241;28;20239;-73
2022/05/14 01:13:14;;;;;;;8.57;3.37;;;;;;;15.87;46.84;98362.03;8384815;28;20236;-73
2022/05/14 01:17:17;;;;;;;8.17;3.47;;;;;;;15.90;47.08;98364.47;8384972;28;20235;-73
2022/05/14 01:21:26;;;;;;;7.43;3.50;;;;;;;15.83;46.94;98363.97;8385016;28;20418;-73
2022/05/14 01:29:59;;;;;;;5.97;3.20;;;;;;;15.68;47.45;98361.41;8384325;28;20223;-73
2022/05/14 01:34:05;;;;;;;9.37;3.50;;;;;;;15.62;47.42;98360.00;8384365;28;20227;-73
2022/05/14 01:38:08;;;;;;;7.10;3.67;;;;;;;15.58;47.41;98361.13;8384384;28;20231;-73
2022/05/14 01:42:11;;;;;;;7.73;3.27;;;;;;;15.54;47.58;98352.63;8384356;28;20242;-72
2022/05/14 01:46:16;;;;;;;10.13;3.57;;;;;;;15.56;47.54;98357.75;8384009;28;20534;-73
2022/05/14 01:50:19;;;;;;;6.40;3.30;;;;;;;15.53;47.81;98365.75;8383801;28;20449;-73
2022/05/14 01:54:22;;;;;;;6.83;3.30;;;;;;;15.52;47.68;98364.94;8374008;28;20514;-73
2022/05/14 01:58:40;;;;;;;6.67;3.30;;;;;;;15.27;48.36;98360.28;8377600;28;20232;-73
2022/05/14 02:02:44;;;;;;;7.57;3.40;;;;;;;15.35;48.15;98357.25;8350566;28;20231;-73
2022/05/14 02:06:47;;;;;;;7.80;3.37;;;;;;;15.31;48.41;98351.34;8350572;28;20412;-73
2022/05/14 02:10:50;;;;;;;6.80;3.17;;;;;;;15.36;48.17;98362.34;8350453;28;20228;-73
2022/05/14 02:14:53;;;;;;;5.77;3.33;;;;;;;15.32;48.22;98358.22;8350014;28;20232;-73
2022/05/14 02:18:58;;;;;;;6.17;3.30;;;;;;;15.40;48.11;98345.59;8349882;28;20223;-73
2022/05/14 02:23:01;;;;;;;7.00;3.67;;;;;;;15.30;48.42;98352.28;8349881;28;20523;-73
2022/05/14 02:27:05;;;;;;;5.53;3.10;;;;;;;15.34;48.56;98351.16;8349905;28;20246;-72
2022/05/14 02:31:08;;;;;;;7.60;3.43;;;;;;;15.13;49.06;98350.63;8349439;28;20561;-73
2022/05/14 02:35:13;;;;;;;7.27;3.53;;;;;;;15.28;48.89;98343.69;8349327;28;20557;-73
2022/05/14 02:39:16;;;;;;;9.33;3.70;;;;;;;15.17;49.05;98344.31;8349338;28;20232;-73
2022/05/14 02:43:19;;;;;;;5.80;3.60;;;;;;;15.10;49.30;98347.34;8349300;28;20232;-73
2022/05/14 02:47:23;;;;;;;7.33;3.77;;;;;;;15.05;49.88;98338.00;8315850;28;20229;-73
2022/05/14 02:51:27;;;;;;;5.50;3.53;;;;;;;15.08;49.47;98333.56;8316267;28;20235;-73
2022/05/14 02:55:30;;;;;;;10.83;3.47;;;;;;;15.08;49.64;98341.38;8315976;28;20417;-73
2022/05/14 02:59:33;;;;;;;8.47;3.67;;;;;;;15.07;49.60;98337.94;8331102;28;20239;-72
2022/05/14 03:03:37;;;;;;;10.37;3.50;;;;;;;14.97;49.67;98336.78;8348493;28;20239;-73
2022/05/14 03:07:42;;;;;;;7.77;4.00;;;;;;;15.03;49.49;98339.03;8348444;28;20232;-72
2022/05/14 03:11:45;;;;;;;10.53;4.20;;;;;;;14.69;50.48;98327.88;8348400;28;20228;-73
2022/05/14 03:15:49;;;;;;;9.17;4.30;;;;;;;14.62;50.69;98335.22;8348131;28;20228;-73
2022/05/14 03:19:52;;;;;;;6.97;4.20;;;;;;;14.82;50.01;98339.31;8348303;28;20460;-73
2022/05/14 03:23:56;;;;;;;7.80;4.13;;;;;;;14.97;49.94;98332.41;8348182;28;20232;-73
2022/05/14 03:27:59;;;;;;;10.20;4.27;;;;;;;14.88;50.16;98345.94;8348037;28;20235;-73
2022/05/14 03:32:03;;;;;;;11.13;4.37;;;;;;;14.84;50.26;98341.84;8347937;28;20410;-74
2022/05/14 03:36:06;;;;;;;8.70;4.40;;;;;;;14.89;50.15;98342.44;8347929;28;20527;-73
2022/05/14 03:40:12;;;;;;;9.23;4.17;;;;;;;14.71;50.43;98346.06;8347741;28;20239;-74
2022/05/14 03:44:15;;;;;;;14.53;4.10;;;;;;;14.86;50.44;98343.41;8347699;28;20239;-73
2022/05/14 03:48:18;;;;;;;7.70;4.23;;;;;;;14.76;50.45;98344.88;8347428;28;20541;-75
2022/05/14 03:52:22;;;;;;;6.33;4.00;;;;;;;14.83;50.53;98350.56;8347733;28;20290;-74
2022/05/14 03:56:26;;;;;;;13.53;4.23;;;;;;;14.79;50.31;98362.97;8347234;28;20240;-73
2022/05/14 04:00:29;;;;;;;10.10;4.43;;;;;;;14.71;50.44;98356.47;8347291;28;20234;-73
2022/05/14 04:04:33;;;;;;;8.10;4.40;;;;;;;14.73;50.39;98347.63;8347441;28;20526;-73
2022/05/14 04:08:36;;;;;;;10.27;4.37;;;;;;;14.83;50.33;98358.41;8347411;28;20419;-72
2022/05/14 04:12:41;;;;;;;7.50;3.03;;;;;;;14.80;49.68;98358.59;8347390;28;20240;-73
2022/05/14 04:16:44;;;;;;;5.00;2.93;;;;;;;14.82;49.15;98359.34;8350328;28;20235;-73
2022/05/14 04:20:47;;;;;;;5.60;3.37;;;;;;;14.73;49.12;98359.84;8353681;28;20246;-74
2022/05/14 04:24:49;;;;;;;6.77;3.50;;;;;;;14.83;49.28;98361.88;8353491;28;20236;-74
2022/05/14 04:28:54;;;;;;;7.87;4.00;;;;;;;14.92;49.22;98359.66;8353421;28;20376;-73
2022/05/14 04:32:57;;;;;;;9.33;3.50;;;;;;;14.85;49.19;98367.00;8353343;28;20339;-73
2022/05/14 04:37:00;;;;;;;10.07;3.33;;;;;;;14.86;48.88;98372.09;8353247;28;20393;-73
2022/05/14 04:41:02;;;;;;;8.03;3.90;;;;;;;14.93;49.54;98377.00;8353056;28;20240;-73
2022/05/14 04:45:09;;;;;;;12.40;4.00;;;;;;;15.07;49.69;98364.00;8353097;28;20228;-73
2022/05/14 04:49:13;;;;;;;7.57;3.93;;;;;;;14.94;49.93;98370.84;8359461;28;20235;-71
2022/05/14 04:53:16;;;;;;;9.90;4.20;;;;;;;15.09;49.76;98377.81;8385777;28;20526;-73
2022/05/14 04:57:19;;;;;;;8.13;3.83;;;;;;;15.18;50.09;98379.06;8385589;28;20239;-72
2022/05/14 05:01:23;;;;;;;12.63;5.07;;;;;;;15.16;50.42;98379.16;8354409;28;20228;-73
2022/05/14 05:05:27;;;;;;;13.63;4.67;;;;;;;15.20;50.77;98382.44;8352232;28;20235;-73
2022/05/14 05:09:32;;;;;;;9.33;4.30;;;;;;;15.23;50.99;98384.84;8352215;28;20426;-72
2022/05/14 05:13:35;;;;;;;9.70;4.50;;;;;;;14.72;52.37;98389.47;8352080;28;20232;-72
2022/05/14 05:17:40;;;;;;;17.93;5.80;;;;;;;14.66;52.78;98390.63;8351704;28;20255;-73
2022/05/14 05:21:43;;;;;;;12.07;4.87;;;;;;;15.36;51.25;98396.28;8351832;28;20531;-73
2022/05/14 05:25:47;;;;;;;13.27;5.17;;;;;;;15.28;51.28;98393.25;8351346;28;20228;-73
2022/05/14 05:29:50;;;;;;;11.33;4.97;;;;;;;15.58;50.53;98401.13;8350538;28;20511;-73
2022/05/14 05:33:54;;;;;;;13.60;5.00;;;;;;;15.54;49.98;98402.22;8351372;28;20250;-72
2022/05/14 05:37:57;;;;;;;12.63;4.93;;;;;;;15.74;49.74;98405.47;8351272;28;20422;-73
2022/05/14 05:42:00;;;;;;;9.93;5.37;;;;;;;15.59;49.86;98409.78;8351243;28;20235;-74
2022/05/14 05:46:03;;;;;;;10.67;5.20;;;;;;;15.55;50.36;98410.88;8351111;28;20244;-73
2022/05/14 05:50:09;;;;;;;8.37;5.17;;;;;;;16.00;49.84;98417.00;8350701;28;20259;-73
2022/05/14 05:58:32;;;;;;;11.40;5.37;;;;;;;15.96;49.45;98405.88;8357500;28;20228;-72
2022/05/14 06:02:35;;;;;;;12.23;5.00;;;;;;;16.39;49.08;98407.69;8383474;28;20261;-73
2022/05/14 06:06:42;;;;;;;10.33;4.77;;;;;;;16.72;48.32;98403.94;8383364;28;20425;-73
2022/05/14 06:10:45;;;;;;;10.37;4.90;;;;;;;17.00;48.23;98413.50;8383522;28;20290;-74
2022/05/14 06:14:48;;;;;;;10.17;5.00;;;;;;;16.79;47.95;98406.06;8383073;28;20227;-74
2022/05/14 06:18:51;;;;;;;12.17;4.90;;;;;;;17.12;46.98;98412.75;8383074;28;20220;-74
2022/05/14 06:22:55;;;;;;;8.73;4.90;;;;;;;16.94;46.88;98416.53;8382615;28;20433;-74
2022/05/14 06:26:59;;;;;;;7.90;4.50;;;;;;;17.14;46.03;98420.50;8352539;28;20565;-73
2022/05/14 06:31:02;;;;;;;9.80;4.30;;;;;;;17.65;45.49;98412.81;8349490;28;20307;-72
2022/05/14 06:35:05;;;;;;;7.17;4.47;;;;;;;17.90;44.90;98421.69;8349386;28;20243;-71
2022/05/14 06:39:10;;;;;;;9.13;4.10;;;;;;;18.00;45.05;98419.28;8348475;28;20258;-73
2022/05/14 06:43:14;;;;;;;14.93;4.90;;;;;;;17.88;44.73;98416.56;8349139;28;20232;-73
2022/05/14 06:47:17;;;;;;;10.57;4.03;;;;;;;18.37;45.10;98412.34;8368057;28;20254;-74
2022/05/14 06:51:23;;;;;;;8.93;4.30;;;;;;;18.37;44.39;98412.34;8348671;28;20259;-74
2022/05/14 06:55:32;;;;;;;13.80;3.70;;;;;;;18.90;43.92;98407.78;8348242;28;20433;-74
2022/05/14 06:59:35;;;;;;;16.17;4.13;;;;;;;19.12;42.71;98420.19;8364078;28;20297;-74
2022/05/14 07:08:00;;;;;;;6.53;3.70;;;;;;;19.66;40.98;98421.50;8381097;28;20222;-73
2022/05/14 07:12:09;;;;;;;8.40;3.40;;;;;;;19.98;40.32;98425.34;8381086;28;20242;-74
2022/05/14 07:16:12;;;;;;;6.10;3.10;;;;;;;20.27;40.27;98418.69;8381161;28;20310;-74
2022/05/14 07:20:15;;;;;;;12.97;3.60;;;;;;;20.34;38.70;98419.06;8381067;28;20259;-74
2022/05/14 07:24:20;;;;;;;8.17;2.87;;;;;;;20.81;38.31;98421.56;8380903;28;20246;-74
2022/05/14 07:28:24;;;;;;;7.10;2.83;;;;;;;21.02;39.65;98425.16;8380349;28;20523;-74
2022/05/14 07:32:32;;;;;;;6.30;2.20;;;;;;;21.43;39.10;98425.38;8380437;28;20232;-74
2022/05/14 07:36:37;;;;;;;7.73;2.90;;;;;;;21.61;38.07;98417.78;8380380;28;20236;-74
2022/05/14 07:40:41;;;;;;;7.17;2.80;;;;;;;22.01;37.22;98420.59;8380657;28;20227;-74
2022/05/14 07:44:47;;;;;;;6.73;2.40;;;;;;;22.53;36.39;98417.13;8380546;28;20223;-74
2022/05/14 07:48:50;;;;;;;7.93;2.93;;;;;;;22.63;36.12;98420.63;8380337;28;20228;-74
2022/05/14 07:52:53;;;;;;;9.43;2.53;;;;;;;22.99;34.99;98413.94;8379109;28;20233;-74
2022/05/14 07:56:56;;;;;;;7.40;2.50;;;;;;;23.19;34.47;98420.13;8380379;28;20227;-74
2022/05/14 08:01:01;;;;;;;7.03;2.37;;;;;;;23.19;33.98;98419.31;8380019;28;20425;-74
2022/05/14 08:05:04;;;;;;;7.87;2.60;;;;;;;23.57;34.30;98421.13;8380125;28;20430;-74
2022/05/14 08:09:07;;;;;;;6.73;2.33;;;;;;;23.92;33.03;98416.25;8380190;28;20231;-74
2022/05/14 08:13:14;;;;;;;7.53;2.47;;;;;;;24.26;32.01;98415.78;8380235;28;20256;-74
2022/05/14 08:17:19;;;;;;;6.80;2.43;;;;;;;24.28;31.74;98413.81;8379770;28;20235;-73
2022/05/14 08:25:42;;;;;;;3.37;2.00;;;;;;;24.67;32.39;98411.03;8379949;28;20521;-73
2022/05/14 08:29:47;;;;;;;6.90;2.27;;;;;;;25.00;31.47;98406.97;8379593;28;20243;-73
2022/05/14 08:33:51;;;;;;;5.00;2.37;;;;;;;25.49;30.72;98414.56;8379376;28;20232;-74
2022/05/14 08:37:55;;;;;;;7.20;2.63;;;;;;;25.53;30.42;98415.94;8379041;28;20224;-73
2022/05/14 08:41:59;;;;;;;5.47;2.00;;;;;;;25.69;30.57;98409.97;8379544;28;20267;-73
2022/05/14 08:46:02;;;;;;;4.93;1.90;;;;;;;25.61;27.96;98416.03;8379501;28;20237;-73
2022/05/14 08:50:08;;;;;;;6.50;1.70;;;;;;;25.09;28.17;98408.72;8379072;28;20242;-73
2022/05/14 08:54:11;;;;;;;8.30;1.67;;;;;;;25.88;27.37;98406.28;8379386;28;20232;-73
2022/05/14 08:58:21;;;;;;;5.93;1.70;;;;;;;25.90;26.78;98415.75;8379050;28;20581;-73
2022/05/14 09:02:26;;;;;;;3.80;1.17;;;;;;;26.06;28.05;98407.09;8381190;28;20235;-73
2022/05/14 09:06:30;;;;;;;4.87;1.40;;;;;;;26.19;27.26;98408.50;8385267;28;20242;-73
2022/05/14 09:10:35;;;;;;;5.00;1.43;;;;;;;26.54;27.46;98404.91;8385461;28;20236;-73
2022/05/14 09:14:39;;;;;;;4.70;1.60;;;;;;;26.89;26.18;98403.06;8384911;28;20244;-73
2022/05/14 09:18:46;;;;;;;4.53;1.47;;;;;;;27.15;26.18;98400.31;8384709;28;20254;-74
2022/05/14 09:22:56;;;;;;;10.20;1.57;;;;;;;27.30;25.03;98395.19;8384532;28;20236;-74
2022/05/14 09:27:11;;;;;;;9.43;1.53;;;;;;;27.43;25.11;98392.88;8383432;28;20301;-74
2022/05/14 09:31:24;;;;;;;7.33;1.60;;;;;;;27.58;24.41;98405.53;8384497;28;20232;-74
2022/05/14 09:35:29;;;;;;;5.10;1.47;;;;;;;27.76;24.43;98406.19;8384014;28;20443;-74
2022/05/14 09:39:34;;;;;;;6.43;1.57;;;;;;;27.99;24.52;98403.72;8383788;28;20237;-73
2022/05/14 09:43:38;;;;;;;13.03;1.43;;;;;;;27.87;24.00;98395.22;8383996;28;20241;-73
2022/05/14 09:47:41;;;;;;;4.17;1.40;;;;;;;28.22;25.03;98393.19;8383908;28;20241;-74
2022/05/14 09:51:52;;;;;;;4.73;1.30;;;;;;;28.22;24.15;98389.69;8375151;28;20233;-75
2022/05/14 09:56:10;;;;;;;4.77;1.40;;;;;;;28.22;22.19;98393.19;8367079;28;20235;-75
2022/05/14 10:00:16;;;;;;;5.23;1.50;;;;;;;28.09;23.66;98390.22;8374697;28;20250;-76
2022/05/14 10:04:33;;;;;;;13.23;2.10;;;;;;;28.50;23.49;98398.06;8383244;28;20536;-74
2022/05/14 10:08:46;;;;;;;6.43;1.60;;;;;;;28.85;22.88;98394.13;8376597;28;20385;-74
2022/05/14 10:12:54;;;;;;;3.90;1.10;;;;;;;28.61;22.74;98387.06;8382415;28;20231;-74
2022/05/14 10:17:09;;;;;;;4.07;1.30;;;;;;;29.03;21.71;98385.03;8382985;28;20656;-75
2022/05/14 10:21:17;;;;;;;4.83;1.20;;;;;;;29.07;20.84;98381.00;8382741;28;20233;-74
2022/05/14 10:30:00;;;;;;;2.90;1.23;;;;;;;28.73;21.20;98376.03;8381931;28;20240;-74
2022/05/14 10:34:13;;;;;;;4.97;1.23;;;;;;;29.04;21.78;98376.03;8382034;28;20235;-75
2022/05/14 10:38:20;;;;;;;4.87;1.23;;;;;;;29.38;21.17;98377.53;8382213;28;20242;-74
2022/05/14 10:42:33;;;;;;;4.90;1.40;;;;;;;29.35;21.24;98373.34;8373724;28;20417;-73
2022/05/14 10:46:40;;;;;;;2.67;1.17;;;;;;;29.50;21.50;98367.25;8381440;28;20277;-73
2022/05/14 10:50:43;;;;;;;3.30;1.23;;;;;;;29.52;20.85;98359.91;8382026;28;20239;-75
2022/05/14 10:54:46;;;;;;;2.83;1.30;;;;;;;29.07;21.16;98357.00;8381594;28;20227;-74
2022/05/14 10:58:59;;;;;;;3.73;1.40;;;;;;;29.13;21.18;98356.34;8372084;28;20402;-73
2022/05/14 11:03:09;;;;;;;3.37;1.03;;;;;;;29.51;19.73;98366.22;8348252;28;20414;-74
2022/05/14 11:07:14;;;;;;;4.20;1.20;;;;;;;29.43;19.47;98348.44;8354303;28;20235;-74
2022/05/14 11:11:21;;;;;;;5.77;1.27;;;;;;;29.72;20.24;98354.88;8366005;28;20234;-73
2022/05/14 11:15:26;;;;;;;5.43;1.30;;;;;;;29.84;19.83;98349.97;8363413;28;20237;-76
2022/05/14 11:19:36;;;;;;;7.07;1.60;;;;;;;29.46;20.32;98341.94;8364346;28;20235;-77
2022/05/14 11:23:48;;;;;;;4.37;1.37;;;;;;;29.64;21.82;98337.09;8378685;28;20224;-76
2022/05/14 11:27:56;;;;;;;4.87;1.30;;;;;;;29.38;20.85;98342.84;8380711;28;20249;-76
2022/05/14 11:32:06;;;;;;;3.80;1.30;;;;;;;29.11;19.25;98338.84;8380651;28;20231;-76
2022/05/14 11:36:23;;;;;;;2.90;1.23;;;;;;;29.03;20.25;98331.72;8380465;28;20229;-76
2022/05/14 11:40:29;;;;;;;5.63;1.10;;;;;;;28.56;19.51;98330.84;8380090;28;20242;-76
2022/05/14 11:44:37;;;;;;;3.40;1.20;;;;;;;28.87;20.59;98330.00;8366069;28;20426;-76
2022/05/14 11:48:45;;;;;;;6.03;1.70;;;;;;;29.08;20.47;98329.34;8360115;28;20530;-76
2022/05/14 11:52:57;;;;;;;3.57;1.33;;;;;;;29.25;20.39;98324.78;8380262;28;20433;-76
2022/05/14 11:57:04;;;;;;;3.30;1.47;;;;;;;29.04;20.03;98323.56;8380280;28;20238;-76
2022/05/14 12:01:08;;;;;;;6.17;1.27;;;;;;;28.93;19.59;98318.63;8362125;28;20245;-75
2022/05/14 12:05:14;;;;;;;5.27;1.50;;;;;;;29.35;20.26;98314.69;8363411;28;20577;-74
2022/05/14 12:09:30;;;;;;;5.43;1.40;;;;;;;29.44;21.24;98321.59;8352727;28;20239;-75
2022/05/14 12:13:36;;;;;;;4.60;1.47;;;;;;;29.18;20.98;98313.16;8346664;28;20235;-73
2022/05/14 12:17:47;;;;;;;3.43;1.30;;;;;;;29.11;20.71;98304.16;8353454;28;20227;-72
2022/05/14 12:21:52;;;;;;;4.77;1.23;;;;;;;29.69;21.13;98302.69;8362253;28;20236;-74
2022/05/14 12:25:57;;;;;;;4.23;1.17;;;;;;;29.75;20.85;98298.50;8356616;28;20229;-75
2022/05/14 12:30:02;;;;;;;4.70;1.43;;;;;;;29.50;20.45;98292.56;8360469;28;20238;-75
2022/05/14 12:34:13;;;;;;;4.07;1.43;;;;;;;29.59;21.03;98294.97;8375050;28;20553;-74
2022/05/14 12:38:21;;;;;;;4.67;1.37;;;;;;;28.97;20.71;98295.94;8383756;28;20397;-74
2022/05/14 12:42:36;;;;;;;4.40;1.80;;;;;;;29.26;21.34;98288.25;8385312;28;20232;-74
2022/05/14 12:46:41;;;;;;;7.50;1.50;;;;;;;29.42;20.98;98288.94;8382826;28;20236;-74
2022/05/14 12:50:52;;;;;;;7.67;1.50;;;;;;;29.50;21.56;98293.38;8373044;28;20298;-73
2022/05/14 12:54:58;;;;;;;5.70;1.40;;;;;;;29.36;20.48;98288.81;8333975;28;20247;-74
2022/05/14 12:59:04;;;;;;;5.60;1.23;;;;;;;29.68;21.33;98285.00;8330415;28;20424;-74
2022/05/14 13:03:10;;;;;;;9.63;2.30;;;;;;;29.81;21.33;98274.56;8352260;28;20241;-75
2022/05/14 13:07:13;;;;;;;7.50;1.40;;;;;;;29.81;21.29;98273.75;8352113;28;20243;-75
2022/05/14 13:11:18;;;;;;;5.43;1.80;;;;;;;30.15;20.46;98261.69;8351361;28;20426;-74
2022/05/14 13:15:34;;;;;;;77.97;10.97;;;;;;;29.93;20.64;98261.59;8384699;28;20338;-74
2022/05/14 13:19:38;;;;;;;18.27;4.70;;;;;;;29.80;20.92;98251.56;8378926;28;20547;-74
2022/05/14 13:23:52;;;;;;;6.30;1.43;;;;;;;29.54;21.50;98259.16;8384477;28;27492;-73
2022/05/14 13:28:14;;;;;;;6.20;1.63;;;;;;;29.67;21.08;98250.53;8383970;28;20251;-73
2022/05/14 13:32:29;;;;;;;2.30;1.07;;;;;;;29.75;20.18;98248.63;8384444;28;20243;-74
2022/05/14 13:40:53;;;;;;;16.57;2.77;;;;;;;29.13;21.03;98236.38;8384064;28;20259;-74
2022/05/14 13:45:05;;;;;;;2.80;1.37;;;;;;;29.10;19.84;98233.22;8383998;28;20236;-73
2022/05/14 13:49:18;;;;;;;4.73;1.30;;;;;;;29.18;21.11;98230.50;8319328;28;20237;-74
2022/05/14 13:53:24;;;;;;;4.33;1.43;;;;;;;29.37;20.87;98224.63;8318018;28;20237;-73
2022/05/14 13:57:28;;;;;;;6.47;1.60;;;;;;;29.46;21.19;98230.72;8317231;28;20525;-73
2022/05/14 14:01:35;;;;;;;5.33;1.30;;;;;;;29.45;20.30;98223.72;8350165;28;20252;-73
2022/05/14 14:05:40;;;;;;;5.97;1.40;;;;;;;29.28;20.17;98224.91;8383108;28;20238;-74
2022/05/14 14:09:44;;;;;;;5.43;1.23;;;;;;;29.10;20.92;98223.38;8356033;28;20242;-73
2022/05/14 14:13:47;;;;;;;6.07;1.30;;;;;;;29.10;19.66;98222.53;8350198;28;20425;-74
2022/05/14 14:17:50;;;;;;;4.43;1.37;;;;;;;29.06;20.15;98216.75;8349699;28;20432;-74
2022/05/14 14:21:57;;;;;;;4.43;1.30;;;;;;;28.62;21.13;98202.25;8349870;28;20520;-72
2022/05/14 14:26:01;;;;;;;5.03;1.30;;;;;;;28.64;21.59;98204.75;8349619;28;20235;-72
2022/05/14 14:30:05;;;;;;;5.03;1.40;;;;;;;28.64;21.97;98200.25;8349610;28;20518;-74
2022/05/14 14:34:08;;;;;;;4.47;1.40;;;;;;;28.80;22.57;98195.78;8349620;28;20236;-75
2022/05/14 14:38:13;;;;;;;4.03;1.40;;;;;;;28.63;22.90;98198.56;8349216;28;20235;-72
2022/05/14 14:42:16;;;;;;;5.57;1.50;;;;;;;28.37;22.66;98198.06;8349293;28;20243;-73
2022/05/14 14:46:19;;;;;;;5.33;1.53;;;;;;;28.32;21.58;98193.25;8349054;28;20239;-73
2022/05/14 14:50:25;;;;;;;5.37;1.43;;;;;;;28.45;22.47;98192.69;8348419;28;20235;-73
2022/05/14 14:54:30;;;;;;;8.20;1.97;;;;;;;28.36;22.82;98186.56;8348805;28;20427;-73
2022/05/14 14:58:33;;;;;;;6.17;1.50;;;;;;;28.13;22.87;98185.72;8355462;28;20233;-73
2022/05/14 15:02:40;;;;;;;3.40;1.40;;;;;;;27.98;23.46;98183.78;8381142;28;20238;-74
2022/05/14 15:06:43;;;;;;;4.57;1.50;;;;;;;27.92;23.42;98186.34;8381454;28;20567;-73
2022/05/14 15:10:48;;;;;;;3.60;1.40;;;;;;;28.05;23.72;98191.94;8381394;28;20425;-73
2022/05/14 15:14:51;;;;;;;3.57;1.60;;;;;;;27.72;24.47;98188.53;8381335;28;20238;-72
2022/05/14 15:18:54;;;;;;;5.90;1.67;;;;;;;27.64;23.91;98178.75;8381396;28;20232;-73
2022/05/14 15:22:57;;;;;;;6.93;1.80;;;;;;;27.49;24.59;98186.59;8380952;28;20516;-73
2022/05/14 15:27:02;;;;;;;4.77;1.70;;;;;;;27.63;24.89;98185.09;8380608;28;20241;-72
2022/05/14 15:31:09;;;;;;;8.90;2.10;;;;;;;27.46;24.15;98177.16;8381108;28;20236;-73
2022/05/14 15:35:13;;;;;;;3.97;1.60;;;;;;;27.43;24.13;98179.31;8380789;28;20234;-73
2022/05/14 15:39:16;;;;;;;5.97;1.80;;;;;;;27.01;24.97;98172.38;8380657;28;20426;-73
2022/05/14 15:43:24;;;;;;;4.13;1.33;;;;;;;27.07;25.60;98175.22;8380508;28;20536;-73
2022/05/14 15:47:29;;;;;;;11.90;1.97;;;;;;;26.80;25.24;98167.59;8379867;28;20234;-72
2022/05/14 15:51:33;;;;;;;5.93;2.00;;;;;;;26.64;25.34;98171.91;8380492;28;20259;-73
2022/05/14 15:55:36;;;;;;;3.53;1.53;;;;;;;26.56;25.19;98168.38;8380323;28;20300;-72
2022/05/14 15:59:40;;;;;;;3.50;1.50;;;;;;;26.42;24.56;98169.84;8379980;28;20318;-72
2022/05/14 16:03:43;;;;;;;4.87;1.90;;;;;;;26.46;24.53;98169.34;8380228;28;20231;-72
2022/05/14 16:07:46;;;;;;;7.37;1.60;;;;;;;26.30;25.44;98167.50;8380324;28;20234;-72
2022/05/14 16:16:19;;;;;;;5.47;1.67;;;;;;;26.18;26.28;98162.66;8339997;28;20237;-73
2022/05/14 16:20:22;;;;;;;9.80;1.57;;;;;;;26.13;25.72;98163.97;8386073;28;20232;-73
2022/05/14 16:24:25;;;;;;;3.57;1.90;;;;;;;26.07;25.48;98161.97;8386326;28;20227;-73
2022/05/14 16:28:30;;;;;;;19.50;2.73;;;;;;;25.87;26.56;98161.38;8386365;28;20237;-73
2022/05/14 16:32:34;;;;;;;6.13;1.40;;;;;;;25.82;25.81;98158.41;8386232;28;20454;-73
2022/05/14 16:36:37;;;;;;;4.03;1.47;;;;;;;25.84;25.35;98160.91;8386270;28;20425;-73
2022/05/14 16:40:41;;;;;;;5.03;1.40;;;;;;;25.59;25.78;98158.16;8385964;28;20237;-74
2022/05/14 16:44:43;;;;;;;5.93;1.90;;;;;;;25.63;26.58;98159.47;8385799;28;20238;-75
2022/05/14 16:48:48;;;;;;;6.67;1.87;;;;;;;25.58;26.56;98169.72;8385773;28;20232;-74
2022/05/14 16:52:51;;;;;;;10.27;1.83;;;;;;;25.53;27.17;98166.72;8385693;28;20225;-75
2022/05/14 16:56:54;;;;;;;8.13;1.80;;;;;;;25.44;27.00;98165.84;8385706;28;20238;-72
2022/05/14 17:00:58;;;;;;;4.20;1.53;;;;;;;25.36;27.15;98166.63;8385176;28;20243;-72
2022/05/14 17:05:02;;;;;;;9.57;1.70;;;;;;;25.21;27.59;98162.88;8385340;28;20228;-71
2022/05/14 17:09:06;;;;;;;22.53;10.40;;;;;;;25.08;27.13;98162.47;8385279;28;20432;-74
2022/05/14 17:13:16;;;;;;;18.10;9.57;;;;;;;25.08;28.38;98176.53;8385136;28;20229;-72
2022/05/14 17:17:19;;;;;;;10.43;2.63;;;;;;;24.97;30.51;98171.47;8385109;28;20236;-73
2022/05/14 17:21:24;;;;;;;6.63;2.07;;;;;;;24.92;28.66;98171.09;8384226;28;20229;-74
2022/05/14 17:25:28;;;;;;;11.23;2.30;;;;;;;24.88;29.33;98169.75;8384454;28;20445;-76
2022/05/14 17:29:30;;;;;;;9.03;2.33;;;;;;;24.81;30.70;98169.53;8384707;28;20258;-74
2022/05/14 17:33:33;;;;;;;10.93;2.17;;;;;;;24.71;30.13;98172.28;8384554;28;20242;-73
2022/05/14 17:41:58;;;;;;;6.37;1.70;;;;;;;24.45;30.94;98177.47;8383711;28;20399;-73
2022/05/14 17:46:01;;;;;;;18.47;2.80;;;;;;;24.36;30.44;98179.19;8384238;28;20530;-72
2022/05/14 17:50:11;;;;;;;9.57;2.00;;;;;;;24.34;31.37;98178.53;8383879;28;20232;-74
2022/05/14 17:54:16;;;;;;;8.80;2.13;;;;;;;24.31;31.10;98185.91;8383961;28;20239;-73
2022/05/14 17:58:19;;;;;;;4.80;1.70;;;;;;;24.17;31.43;98190.75;8383809;28;20227;-74
2022/05/14 18:02:22;;;;;;;7.50;2.37;;;;;;;24.04;32.61;98194.72;8383216;28;20237;-73
2022/05/14 18:06:26;;;;;;;9.90;1.80;;;;;;;24.13;32.07;98189.38;8383402;28;20526;-72
2022/05/14 18:10:30;;;;;;;4.30;1.90;;;;;;;24.07;32.82;98192.63;8383378;28;20232;-72
2022/05/14 18:14:34;;;;;;;5.70;2.20;;;;;;;23.96;33.12;98195.47;8383178;28;20232;-78
2022/05/14 18:18:38;;;;;;;11.10;2.53;;;;;;;23.97;33.04;98192.69;8382984;28;20231;-73
2022/05/14 18:22:42;;;;;;;7.87;2.90;;;;;;;23.90;32.98;98194.25;8382916;28;20243;-72
2022/05/14 18:26:50;;;;;;;10.23;2.90;;;;;;;23.92;33.56;98194.94;8382688;28;20238;-75
2022/05/14 18:30:54;;;;;;;9.93;2.87;;;;;;;23.84;33.29;98199.28;8382766;28;20236;-75
2022/05/14 18:34:58;;;;;;;9.57;2.43;;;;;;;23.78;33.69;98200.69;8381843;28;20236;-73
2022/05/14 18:39:04;;;;;;;5.70;2.40;;;;;;;23.70;33.67;98204.03;8382481;28;20238;-74
2022/05/14 18:43:10;;;;;;;16.63;3.80;;;;;;;23.57;34.83;98204.38;8382400;28;20268;-74
2022/05/14 18:47:14;;;;;;;11.57;3.20;;;;;;;23.45;34.89;98204.69;8382397;28;20539;-73
2022/05/14 18:51:17;;;;;;;6.97;3.07;;;;;;;23.35;35.02;98202.06;8382019;28;20457;-72
2022/05/14 18:55:20;;;;;;;11.60;4.10;;;;;;;23.21;35.05;98206.84;8382110;28;20231;-74
2022/05/14 18:59:25;;;;;;;21.80;11.53;;;;;;;23.26;36.42;98214.31;8381294;28;20231;-74
2022/05/14 19:03:28;;;;;;;39.33;24.03;;;;;;;23.23;36.92;98215.44;8381724;28;20558;-77
2022/05/14 19:07:30;;;;;;;29.90;17.30;;;;;;;23.08;36.19;98222.16;8381219;28;20231;-75
2022/05/14 19:11:33;;;;;;;21.87;8.43;;;;;;;23.07;37.41;98223.13;8381566;28;20244;-80
2022/05/14 19:15:38;;;;;;;14.63;7.30;;;;;;;22.94;37.69;98227.81;8381217;28;20428;-76
2022/05/14 19:19:41;;;;;;;17.50;5.80;;;;;;;22.73;36.81;98231.47;8381225;28;20248;-74
2022/05/14 19:23:44;;;;;;;10.47;3.13;;;;;;;22.58;37.01;98232.81;8381082;28;20226;-73
2022/05/14 19:27:47;;;;;;;9.30;3.83;;;;;;;22.36;37.53;98233.91;8381123;28;20231;-73
2022/05/14 19:31:51;;;;;;;10.67;3.23;;;;;;;22.23;37.77;98249.94;8380964;28;20529;-72
2022/05/14 19:35:55;;;;;;;19.40;3.23;;;;;;;22.17;38.57;98243.41;8380742;28;20223;-74
2022/05/14 19:40:02;;;;;;;20.27;3.70;;;;;;;22.08;39.03;98249.47;8380531;28;20238;-73
2022/05/14 19:44:09;;;;;;;11.13;2.90;;;;;;;22.04;38.61;98256.81;8380616;28;20239;-73
2022/05/14 19:48:15;;;;;;;16.03;3.33;;;;;;;21.96;38.65;98254.03;8380511;28;20440;-72
2022/05/14 19:52:20;;;;;;;6.30;2.60;;;;;;;21.89;39.26;98254.69;8380661;28;20239;-72